createdAt,value
2022-11-10T00:01:07.485Z,46.87
2022-11-10T00:03:35.948Z,47.03
2022-11-10T00:06:05.854Z,49.03
2022-11-10T00:08:33.146Z,48.73
2022-11-10T00:11:06.386Z,48.57
2022-11-10T00:13:56.445Z,44.67
2022-11-10T00:16:42.310Z,51.27
2022-11-10T00:19:09.723Z,50.50
2022-11-10T00:21:37.903Z,47.63
2022-11-10T00:24:05.769Z,48.17
2022-11-10T00:26:32.681Z,50.97
2022-11-10T00:28:59.649Z,50.03
2022-11-10T00:31:28.552Z,51.63
2022-11-10T00:33:55.925Z,49.13
2022-11-10T00:36:23.646Z,51.10
2022-11-10T00:38:51.871Z,49.53
2022-11-10T00:41:18.968Z,49.73
2022-11-10T00:43:46.086Z,49.00
2022-11-10T00:46:13.215Z,49.23
2022-11-10T00:48:40.691Z,45.07
2022-11-10T00:51:09.847Z,52.90
2022-11-10T00:53:36.741Z,47.63
2022-11-10T00:56:03.677Z,45.57
2022-11-10T00:58:30.571Z,46.93
2022-11-10T01:01:03.039Z,49.03
2022-11-10T01:03:30.221Z,53.77
2022-11-10T01:05:57.150Z,53.13
2022-11-10T01:08:24.542Z,46.70
2022-11-10T01:10:51.480Z,49.77
2022-11-10T01:13:18.435Z,45.57
2022-11-10T01:15:45.381Z,47.43
2022-11-10T01:18:12.310Z,48.07
2022-11-10T01:20:39.259Z,43.97
2022-11-10T01:23:06.156Z,48.93
2022-11-10T01:25:33.059Z,51.20
2022-11-10T01:27:59.986Z,48.90
2022-11-10T01:30:26.976Z,45.60
2022-11-10T01:32:55.965Z,43.80
2022-11-10T01:35:22.901Z,53.93
2022-11-10T01:37:52.717Z,43.60
2022-11-10T01:40:20.497Z,49.57
2022-11-10T01:42:53.442Z,45.90
2022-11-10T01:45:23.321Z,48.63
2022-11-10T01:47:56.488Z,59.07
2022-11-10T01:50:30.197Z,48.23
2022-11-10T01:53:02.484Z,49.67
2022-11-10T01:55:30.523Z,49.57
2022-11-10T01:57:57.877Z,46.23
2022-11-10T02:00:25.013Z,53.43
2022-11-10T02:03:32.376Z,48.33
2022-11-10T02:06:00.044Z,47.50
2022-11-10T02:08:27.846Z,47.53
2022-11-10T02:10:55.735Z,47.17
2022-11-10T02:13:23.101Z,45.33
2022-11-10T02:15:50.794Z,48.40
2022-11-10T02:18:17.782Z,45.03
2022-11-10T02:20:46.133Z,46.57
2022-11-10T02:23:36.382Z,51.33
2022-11-10T02:26:07.028Z,47.10
2022-11-10T02:28:37.065Z,49.67
2022-11-10T02:31:05.371Z,50.97
2022-11-10T02:33:32.300Z,49.07
2022-11-10T02:35:59.259Z,46.90
2022-11-10T02:38:26.167Z,50.43
2022-11-10T02:40:53.106Z,53.37
2022-11-10T02:43:20.490Z,52.77
2022-11-10T02:45:47.774Z,52.47
2022-11-10T02:48:15.962Z,48.93
2022-11-10T02:50:43.286Z,47.30
2022-11-10T02:53:10.276Z,48.80
2022-11-10T02:55:37.242Z,53.63
2022-11-10T02:58:04.412Z,50.13
2022-11-10T03:00:31.522Z,48.77
2022-11-10T03:03:02.102Z,47.70
2022-11-10T03:05:30.486Z,51.67
2022-11-10T03:08:01.508Z,47.17
2022-11-10T03:10:30.418Z,50.83
2022-11-10T03:12:59.994Z,50.87
2022-11-10T03:15:28.000Z,44.30
2022-11-10T03:17:55.870Z,45.07
2022-11-10T03:20:23.336Z,46.20
2022-11-10T03:22:50.329Z,47.33
2022-11-10T03:25:17.304Z,50.93
2022-11-10T03:27:44.865Z,47.30
2022-11-10T03:30:12.228Z,45.93
2022-11-10T03:32:39.199Z,52.57
2022-11-10T03:35:06.525Z,49.90
2022-11-10T03:37:33.472Z,44.27
2022-11-10T03:40:00.449Z,51.13
2022-11-10T03:42:27.413Z,47.73
2022-11-10T03:44:54.364Z,46.17
2022-11-10T03:47:21.401Z,45.67
2022-11-10T03:49:48.399Z,48.73
2022-11-10T03:52:16.033Z,51.57
2022-11-10T03:54:43.083Z,47.30
2022-11-10T03:57:10.032Z,50.37
2022-11-10T03:59:36.945Z,48.50
2022-11-10T04:02:04.129Z,47.13
2022-11-10T04:04:49.638Z,44.57
2022-11-10T04:07:35.136Z,47.50
2022-11-10T04:10:02.145Z,54.30
2022-11-10T04:12:47.827Z,52.30
2022-11-10T04:15:33.402Z,48.50
2022-11-10T04:18:20.318Z,50.00
2022-11-10T04:20:48.478Z,53.33
2022-11-10T04:23:29.188Z,49.07
2022-11-10T04:26:26.173Z,55.60
2022-11-10T04:28:58.160Z,48.00
2022-11-10T04:31:27.684Z,51.50
2022-11-10T04:33:58.228Z,46.33
2022-11-10T04:36:29.456Z,47.03
2022-11-10T04:38:57.245Z,51.77
2022-11-10T04:41:26.115Z,53.80
2022-11-10T04:43:54.080Z,48.50
2022-11-10T04:46:31.325Z,54.67
2022-11-10T04:48:59.328Z,47.63
2022-11-10T04:51:30.393Z,51.87
2022-11-10T04:53:58.005Z,47.87
2022-11-10T04:56:26.782Z,52.83
2022-11-10T04:58:54.768Z,47.27
2022-11-10T05:01:28.370Z,46.07
2022-11-10T05:03:56.076Z,51.23
2022-11-10T05:06:23.604Z,53.27
2022-11-10T05:08:51.316Z,52.43
2022-11-10T05:11:18.786Z,54.20
2022-11-10T05:13:46.051Z,49.37
2022-11-10T05:16:13.252Z,48.27
2022-11-10T05:18:41.620Z,53.20
2022-11-10T05:21:08.846Z,54.13
2022-11-10T05:23:38.958Z,51.50
2022-11-10T05:26:11.936Z,55.83
2022-11-10T05:28:44.066Z,49.60
2022-11-10T05:31:12.365Z,52.30
2022-11-10T05:33:39.930Z,50.83
2022-11-10T05:36:08.030Z,52.73
2022-11-10T05:38:39.027Z,51.93
2022-11-10T05:41:10.089Z,49.27
2022-11-10T05:43:36.990Z,51.30
2022-11-10T05:46:03.985Z,53.47
2022-11-10T05:48:30.996Z,52.33
2022-11-10T05:50:57.999Z,52.70
2022-11-10T05:53:25.208Z,47.93
2022-11-10T05:55:52.413Z,48.67
2022-11-10T05:58:19.362Z,51.10
2022-11-10T06:00:46.385Z,52.37
2022-11-10T06:03:17.369Z,48.37
2022-11-10T06:05:44.716Z,47.03
2022-11-10T06:08:12.131Z,54.57
2022-11-10T06:10:40.226Z,52.43
2022-11-10T06:13:07.493Z,49.87
2022-11-10T06:15:34.468Z,46.80
2022-11-10T06:18:02.200Z,51.87
2022-11-10T06:20:29.466Z,55.90
2022-11-10T06:23:21.165Z,53.17
2022-11-10T06:25:48.371Z,47.53
2022-11-10T06:28:15.385Z,52.30
2022-11-10T06:30:42.294Z,50.00
2022-11-10T06:33:09.582Z,49.60
2022-11-10T06:35:36.585Z,55.57
2022-11-10T06:38:11.698Z,52.47
2022-11-10T06:40:38.627Z,51.53
2022-11-10T06:43:05.656Z,53.40
2022-11-10T06:45:32.597Z,57.00
2022-11-10T06:48:09.660Z,56.53
2022-11-10T06:50:36.785Z,53.13
2022-11-10T06:53:04.203Z,54.43
2022-11-10T06:55:31.397Z,47.27
2022-11-10T06:57:58.676Z,49.90
2022-11-10T07:00:28.556Z,49.83
2022-11-10T07:03:07.158Z,49.03
2022-11-10T07:05:36.542Z,51.00
2022-11-10T07:08:18.303Z,55.23
2022-11-10T07:10:55.053Z,50.43
2022-11-10T07:13:23.316Z,44.20
2022-11-10T07:15:51.076Z,45.77
2022-11-10T07:18:18.075Z,50.47
2022-11-10T07:20:46.259Z,47.77
2022-11-10T07:23:13.261Z,49.23
2022-11-10T07:25:40.166Z,46.60
2022-11-10T07:28:10.594Z,48.60
2022-11-10T07:30:37.901Z,43.83
2022-11-10T07:33:09.441Z,46.83
2022-11-10T07:35:36.887Z,48.77
2022-11-10T07:38:12.488Z,45.23
2022-11-10T07:40:39.821Z,44.27
2022-11-10T07:43:06.933Z,38.37
2022-11-10T07:45:33.981Z,42.43
2022-11-10T07:48:06.664Z,43.80
2022-11-10T07:50:33.937Z,44.03
2022-11-10T07:53:16.353Z,42.13
2022-11-10T07:55:45.195Z,45.67
2022-11-10T07:58:15.228Z,42.07
2022-11-10T08:00:43.313Z,42.10
2022-11-10T08:03:17.050Z,45.27
2022-11-10T08:05:44.302Z,42.50
2022-11-10T08:08:12.155Z,43.20
2022-11-10T08:10:40.953Z,44.20
2022-11-10T08:13:10.992Z,46.33
2022-11-10T08:15:39.163Z,53.03
2022-11-10T08:18:19.344Z,47.60
2022-11-10T08:20:46.483Z,51.90
2022-11-10T08:23:14.612Z,46.50
2022-11-10T08:25:42.055Z,46.77
2022-11-10T08:28:18.159Z,43.67
2022-11-10T08:30:48.399Z,40.97
2022-11-10T08:33:19.608Z,42.37
2022-11-10T08:35:51.083Z,43.27
2022-11-10T08:38:24.548Z,54.13
2022-11-10T08:40:51.723Z,43.67
2022-11-10T08:43:18.998Z,40.43
2022-11-10T08:45:46.613Z,41.93
2022-11-10T08:48:19.970Z,45.93
2022-11-10T08:50:49.636Z,46.73
2022-11-10T08:53:23.961Z,47.30
2022-11-10T08:55:52.189Z,49.10
2022-11-10T08:58:24.049Z,45.55
2022-11-10T09:00:51.728Z,40.47
2022-11-10T09:03:23.917Z,44.83
2022-11-10T09:05:58.081Z,41.57
2022-11-10T09:08:26.463Z,39.78
2022-11-10T09:10:53.432Z,40.63
2022-11-10T09:13:29.071Z,39.53
2022-11-10T09:16:06.316Z,43.55
2022-11-10T09:18:33.488Z,43.15
2022-11-10T09:21:03.334Z,40.85
2022-11-10T09:23:30.377Z,39.72
2022-11-10T09:25:57.384Z,36.90
2022-11-10T09:28:25.262Z,34.73
2022-11-10T09:30:52.970Z,37.30
2022-11-10T09:33:20.594Z,37.22
2022-11-10T09:35:47.983Z,36.25
2022-11-10T09:38:15.084Z,37.72
2022-11-10T09:40:50.934Z,34.22
2022-11-10T09:43:41.373Z,39.80
2022-11-10T09:46:41.872Z,31.33
2022-11-10T09:49:49.850Z,36.22
2022-11-10T09:52:18.185Z,38.80
2022-11-10T09:55:24.758Z,36.08
2022-11-10T09:57:56.396Z,39.15
2022-11-10T10:00:23.411Z,32.47
2022-11-10T10:03:01.232Z,36.70
2022-11-10T10:06:02.617Z,37.83
2022-11-10T10:08:47.719Z,38.00
2022-11-10T10:11:45.020Z,32.20
2022-11-10T10:14:52.614Z,35.92
2022-11-10T10:17:41.696Z,34.70
2022-11-10T10:20:38.027Z,33.40
2022-11-10T10:24:08.422Z,34.90
2022-11-10T10:26:39.265Z,35.03
2022-11-10T10:29:16.480Z,28.05
2022-11-10T10:31:48.749Z,33.70
2022-11-10T10:34:19.947Z,27.13
2022-11-10T10:36:47.411Z,30.25
2022-11-10T10:39:31.343Z,33.40
2022-11-10T10:41:58.951Z,30.35
2022-11-10T10:44:26.202Z,30.02
2022-11-10T10:46:59.722Z,32.90
2022-11-10T10:49:33.794Z,27.13
2022-11-10T10:52:14.955Z,27.58
2022-11-10T10:54:42.025Z,28.02
2022-11-10T10:57:32.495Z,29.50
2022-11-10T11:00:33.212Z,32.72
2022-11-10T11:03:27.288Z,28.88
2022-11-10T11:06:07.647Z,23.85
2022-11-10T11:08:35.204Z,28.48
2022-11-10T11:11:11.384Z,26.20
2022-11-10T11:13:38.840Z,25.77
2022-11-10T11:16:09.463Z,27.73
2022-11-10T11:18:40.127Z,25.13
2022-11-10T11:21:33.645Z,24.95
2022-11-10T11:25:06.963Z,24.73
2022-11-10T11:27:57.595Z,27.60
2022-11-10T11:30:40.321Z,24.40
2022-11-10T11:33:47.295Z,27.63
2022-11-10T11:37:11.149Z,21.90
2022-11-10T11:40:07.002Z,21.52
2022-11-10T11:43:08.992Z,20.33
2022-11-10T11:46:00.524Z,21.52
2022-11-10T11:48:52.324Z,23.95
2022-11-10T11:51:49.561Z,21.08
2022-11-10T11:54:28.647Z,26.85
2022-11-10T11:57:13.569Z,33.13
2022-11-10T12:00:10.433Z,24.05
2022-11-10T12:03:10.637Z,24.40
2022-11-10T12:06:16.361Z,23.10
2022-11-10T12:09:10.064Z,20.55
2022-11-10T12:12:14.417Z,20.48
2022-11-10T12:15:34.395Z,18.50
2022-11-10T12:18:21.723Z,28.90
2022-11-10T12:20:54.564Z,22.10
2022-11-10T12:23:43.036Z,24.75
2022-11-10T12:26:35.299Z,24.40
2022-11-10T12:29:38.804Z,18.33
2022-11-10T12:32:17.404Z,19.10
2022-11-10T12:34:53.116Z,26.05
2022-11-10T12:37:32.756Z,19.98
2022-11-10T12:40:21.336Z,20.33
2022-11-10T12:43:00.196Z,21.77
2022-11-10T12:45:45.243Z,19.00
2022-11-10T12:48:14.918Z,23.42
2022-11-10T12:51:22.005Z,21.23
2022-11-10T12:53:49.790Z,16.98
2022-11-10T12:56:30.151Z,17.10
2022-11-10T12:59:32.447Z,15.23
2022-11-10T13:02:33.598Z,16.42
2022-11-10T13:05:24.292Z,23.35
2022-11-10T13:08:04.850Z,17.38
2022-11-10T13:10:31.931Z,17.42
2022-11-10T13:13:19.376Z,16.08
2022-11-10T13:15:50.590Z,19.90
2022-11-10T13:18:30.965Z,18.50
2022-11-10T13:20:59.618Z,16.67
2022-11-10T13:23:29.309Z,14.40
2022-11-10T13:26:05.889Z,20.85
2022-11-10T13:28:47.801Z,16.40
2022-11-10T13:31:40.271Z,22.33
2022-11-10T13:34:26.700Z,19.75
2022-11-10T13:36:53.888Z,16.30
2022-11-10T13:39:20.738Z,14.27
2022-11-10T13:41:49.107Z,19.77
2022-11-10T13:44:26.130Z,19.20
2022-11-10T13:47:07.906Z,17.58
2022-11-10T13:49:54.894Z,19.63
2022-11-10T13:52:47.286Z,13.90
2022-11-10T13:55:57.905Z,17.45
2022-11-10T13:58:29.601Z,18.88
2022-11-10T14:01:30.425Z,15.50
2022-11-10T14:04:02.892Z,19.08
2022-11-10T14:06:51.701Z,15.57
2022-11-10T14:09:40.000Z,21.40
2022-11-10T14:12:23.348Z,19.02
2022-11-10T14:15:03.106Z,20.27
2022-11-10T14:17:35.707Z,15.40
2022-11-10T14:20:04.189Z,13.15
2022-11-10T14:22:43.269Z,18.17
2022-11-10T14:25:36.210Z,17.67
2022-11-10T14:28:18.491Z,23.33
2022-11-10T14:30:53.379Z,15.80
2022-11-10T14:33:21.243Z,16.10
2022-11-10T14:35:52.649Z,18.60
2022-11-10T14:38:27.374Z,16.45
2022-11-10T14:40:58.750Z,13.80
2022-11-10T14:43:34.578Z,17.25
2022-11-10T14:46:03.634Z,20.50
2022-11-10T14:48:36.976Z,14.52
2022-11-10T14:51:22.345Z,17.08
2022-11-10T14:53:53.501Z,19.60
2022-11-10T14:56:29.308Z,16.75
2022-11-10T14:58:59.319Z,18.42
2022-11-10T15:01:38.764Z,20.08
2022-11-10T15:04:10.848Z,18.95
2022-11-10T15:06:41.881Z,18.42
2022-11-10T15:09:32.159Z,18.90
2022-11-10T15:12:25.866Z,20.60
2022-11-10T15:15:00.987Z,15.35
2022-11-10T15:17:51.682Z,22.60
2022-11-10T15:20:39.971Z,18.77
2022-11-10T15:23:33.818Z,23.85
2022-11-10T15:26:00.951Z,17.95
2022-11-10T15:28:34.486Z,16.77
2022-11-10T15:31:27.913Z,21.13
2022-11-10T15:34:04.850Z,20.98
2022-11-10T15:36:34.526Z,18.90
2022-11-10T15:39:23.418Z,19.52
2022-11-10T15:41:56.897Z,21.73
2022-11-10T15:44:28.132Z,20.95
2022-11-10T15:46:56.917Z,22.60
2022-11-10T15:49:35.958Z,20.70
2022-11-10T15:52:11.387Z,20.35
2022-11-10T15:54:38.484Z,23.58
2022-11-10T15:57:15.230Z,22.08
2022-11-10T15:59:42.658Z,25.70
2022-11-10T16:02:23.999Z,23.73
2022-11-10T16:04:59.590Z,20.08
2022-11-10T16:07:27.100Z,20.58
2022-11-10T16:09:54.049Z,26.85
2022-11-10T16:12:22.645Z,18.77
2022-11-10T16:14:53.000Z,24.38
2022-11-10T16:17:20.115Z,22.63
2022-11-10T16:19:47.435Z,19.63
2022-11-10T16:22:14.669Z,21.33
2022-11-10T16:24:42.082Z,19.88
2022-11-10T16:27:14.297Z,22.83
2022-11-10T16:29:42.840Z,21.02
2022-11-10T16:32:11.750Z,20.10
2022-11-10T16:34:38.764Z,17.20
2022-11-10T16:37:05.889Z,23.45
2022-11-10T16:39:32.895Z,22.80
2022-11-10T16:41:59.888Z,22.93
2022-11-10T16:44:26.854Z,21.48
2022-11-10T16:46:57.301Z,22.52
2022-11-10T16:49:35.620Z,19.17
2022-11-10T16:52:12.145Z,21.70
2022-11-10T16:54:39.028Z,22.00
2022-11-10T16:57:17.179Z,20.90
2022-11-10T16:59:45.755Z,26.43
2022-11-10T17:02:35.766Z,24.93
2022-11-10T17:05:03.538Z,22.15
2022-11-10T17:07:30.671Z,21.45
2022-11-10T17:09:59.182Z,20.37
2022-11-10T17:12:26.231Z,20.70
2022-11-10T17:14:53.248Z,21.58
2022-11-10T17:17:20.796Z,22.97
2022-11-10T17:19:49.444Z,23.53
2022-11-10T17:22:21.692Z,21.53
2022-11-10T17:24:54.909Z,22.97
2022-11-10T17:27:21.953Z,20.02
2022-11-10T17:29:49.131Z,20.10
2022-11-10T17:32:16.029Z,21.10
2022-11-10T17:34:42.990Z,21.40
2022-11-10T17:37:13.893Z,24.80
2022-11-10T17:39:41.446Z,24.27
2022-11-10T17:42:13.689Z,21.48
2022-11-10T17:44:40.636Z,25.87
2022-11-10T17:47:07.682Z,22.30
2022-11-10T17:49:34.601Z,21.45
2022-11-10T17:52:01.539Z,28.30
2022-11-10T17:54:28.495Z,33.77
2022-11-10T17:56:55.405Z,27.90
2022-11-10T17:59:22.366Z,20.83
2022-11-10T18:01:49.319Z,32.27
2022-11-10T18:04:16.282Z,30.03
2022-11-10T18:06:44.209Z,32.07
2022-11-10T18:09:11.143Z,26.63
2022-11-10T18:11:38.509Z,27.67
2022-11-10T18:14:05.495Z,33.57
2022-11-10T18:16:32.895Z,26.37
2022-11-10T18:18:59.887Z,26.97
2022-11-10T18:21:27.481Z,25.53
2022-11-10T18:23:54.451Z,29.90
2022-11-10T18:26:21.417Z,26.73
2022-11-10T18:28:50.104Z,31.00
2022-11-10T18:31:18.977Z,30.13
2022-11-10T18:33:46.018Z,32.27
2022-11-10T18:36:12.994Z,28.77
2022-11-10T18:38:39.963Z,24.13
2022-11-10T18:41:26.275Z,27.40
2022-11-10T18:43:53.228Z,26.97
2022-11-10T18:46:20.268Z,24.03
2022-11-10T18:48:47.857Z,27.67
2022-11-10T18:51:16.362Z,27.33
2022-11-10T18:53:43.400Z,27.47
2022-11-10T18:56:10.451Z,27.93
2022-11-10T18:58:37.586Z,22.37
2022-11-10T19:01:10.148Z,27.63
2022-11-10T19:03:37.755Z,26.57
2022-11-10T19:06:05.217Z,29.40
2022-11-10T19:08:32.309Z,31.10
2022-11-10T19:10:59.762Z,33.40
2022-11-10T19:13:26.748Z,27.97
2022-11-10T19:15:55.747Z,28.53
2022-11-10T19:18:22.704Z,27.13
2022-11-10T19:20:49.674Z,30.13
2022-11-10T19:23:17.773Z,25.87
2022-11-10T19:25:44.873Z,24.20
2022-11-10T19:28:12.059Z,25.70
2022-11-10T19:30:39.740Z,26.37
2022-11-10T19:33:07.316Z,28.13
2022-11-10T19:35:34.356Z,26.97
2022-11-10T19:38:01.271Z,26.00
2022-11-10T19:40:28.247Z,32.37
2022-11-10T19:42:55.222Z,25.07
2022-11-10T19:45:22.445Z,31.70
2022-11-10T19:47:49.377Z,28.33
2022-11-10T19:50:16.593Z,32.60
2022-11-10T19:52:43.552Z,40.00
2022-11-10T19:55:10.596Z,41.00
2022-11-10T19:57:37.656Z,30.93
2022-11-10T20:00:07.009Z,28.13
2022-11-10T20:02:33.989Z,27.30
2022-11-10T20:05:12.883Z,30.20
2022-11-10T20:07:58.743Z,22.50
2022-11-10T20:10:25.926Z,27.77
2022-11-10T20:12:53.120Z,23.80
2022-11-10T20:15:20.076Z,24.30
2022-11-10T20:17:47.060Z,22.53
2022-11-10T20:20:14.842Z,32.13
2022-11-10T20:22:41.785Z,25.90
2022-11-10T20:25:09.664Z,29.17
2022-11-10T20:27:36.723Z,29.10
2022-11-10T20:30:04.959Z,36.17
2022-11-10T20:32:32.194Z,27.87
2022-11-10T20:35:00.692Z,31.13
2022-11-10T20:37:27.668Z,27.70
2022-11-10T20:39:54.618Z,29.07
2022-11-10T20:42:21.572Z,28.70
2022-11-10T20:44:48.495Z,33.83
2022-11-10T20:47:15.526Z,27.63
2022-11-10T20:49:42.611Z,30.13
2022-11-10T20:52:09.563Z,30.47
2022-11-10T20:54:36.501Z,25.97
2022-11-10T20:57:03.475Z,31.23
2022-11-10T20:59:30.462Z,28.37
2022-11-10T21:01:57.572Z,26.37
2022-11-10T21:04:24.662Z,32.43
2022-11-10T21:06:51.649Z,29.70
2022-11-10T21:09:19.932Z,25.07
2022-11-10T21:12:05.475Z,32.57
2022-11-10T21:14:32.402Z,27.87
2022-11-10T21:16:59.355Z,34.13
2022-11-10T21:19:26.409Z,31.63
2022-11-10T21:21:53.913Z,31.30
2022-11-10T21:24:20.999Z,31.23
2022-11-10T21:26:49.105Z,28.57
2022-11-10T21:29:16.094Z,36.23
2022-11-10T21:31:43.070Z,32.80
2022-11-10T21:34:10.128Z,33.43
2022-11-10T21:36:37.088Z,30.37
2022-11-10T21:39:04.178Z,39.50
2022-11-10T21:41:31.915Z,33.77
2022-11-10T21:43:59.072Z,29.90
2022-11-10T21:46:26.011Z,33.67
2022-11-10T21:48:53.136Z,34.30
2022-11-10T21:51:21.117Z,31.47
2022-11-10T21:53:48.712Z,28.33
2022-11-10T21:56:15.668Z,33.27
2022-11-10T21:58:42.573Z,36.03
2022-11-10T22:01:16.852Z,35.23
2022-11-10T22:03:43.943Z,30.03
2022-11-10T22:06:16.043Z,36.77
2022-11-10T22:08:46.540Z,30.57
2022-11-10T22:11:35.843Z,33.63
2022-11-10T22:14:21.744Z,34.30
2022-11-10T22:17:09.602Z,34.00
2022-11-10T22:19:37.590Z,32.03
2022-11-10T22:22:04.680Z,30.23
2022-11-10T22:24:32.128Z,27.87
2022-11-10T22:27:01.603Z,30.13
2022-11-10T22:29:32.239Z,32.73
2022-11-10T22:32:03.347Z,30.60
2022-11-10T22:34:30.321Z,31.87
2022-11-10T22:36:59.475Z,32.83
2022-11-10T22:39:46.822Z,28.10
2022-11-10T22:42:32.915Z,29.87
2022-11-10T22:44:59.861Z,25.23
2022-11-10T22:47:46.771Z,31.50
2022-11-10T22:50:13.770Z,27.33
2022-11-10T22:52:40.672Z,29.73
2022-11-10T22:55:07.963Z,27.43
2022-11-10T22:57:34.860Z,26.03
2022-11-10T23:00:01.788Z,26.10
2022-11-10T23:02:28.732Z,31.17
2022-11-10T23:04:55.660Z,26.70
2022-11-10T23:07:22.633Z,28.80
2022-11-10T23:09:49.595Z,30.17
2022-11-10T23:12:18.336Z,29.30
2022-11-10T23:14:45.241Z,29.23
2022-11-10T23:17:12.257Z,24.67
2022-11-10T23:19:39.194Z,33.63
2022-11-10T23:22:06.104Z,24.73
2022-11-10T23:24:33.078Z,23.17
2022-11-10T23:27:00.290Z,26.17
2022-11-10T23:29:27.230Z,26.23
2022-11-10T23:31:54.161Z,24.70
2022-11-10T23:34:21.076Z,25.50
2022-11-10T23:36:47.978Z,30.40
2022-11-10T23:39:15.008Z,24.17
2022-11-10T23:41:41.913Z,25.00
2022-11-10T23:44:08.843Z,27.43
2022-11-10T23:46:35.803Z,22.67
2022-11-10T23:49:02.739Z,33.27
2022-11-10T23:51:29.641Z,24.33
2022-11-10T23:53:56.796Z,26.87
2022-11-10T23:56:23.691Z,32.00
2022-11-10T23:58:50.768Z,27.27
